Time;durP1;ratioP1;P1;durP2;ratioP2;P2;SDS_P1;SDS_P2;PMS_P1;PMS_P2;Temp;Humidity;BMP_temperature;BMP_pressure;BME280_temperature;BME280_humidity;BME280_pressure;Samples;Min_cycle;Max_cycle;Signal;HPM_P1;HPM_P2
2024/02/27 00:00:01;;;;;;;27.70;11.85;;;;;;;6.06;100.00;101423.78;5254311;28;20114;-74
2024/02/27 00:02:32;;;;;;;31.00;13.88;;;;;;;6.05;100.00;101422.09;5257096;28;20100;-74
2024/02/27 00:05:02;;;;;;;34.88;12.73;;;;;;;6.08;100.00;101429.88;5254968;28;20603;-75
2024/02/27 00:07:33;;;;;;;31.63;13.65;;;;;;;6.09;100.00;101428.88;5260905;28;20092;-74
2024/02/27 00:10:04;;;;;;;31.55;13.35;;;;;;;6.07;100.00;101426.31;5252663;28;20402;-74
2024/02/27 00:12:36;;;;;;;32.58;13.52;;;;;;;6.10;100.00;101431.41;5261018;28;20028;-74
2024/02/27 00:15:07;;;;;;;37.15;13.32;;;;;;;6.11;100.00;101434.94;5255026;28;20397;-75
2024/02/27 00:17:38;;;;;;;32.00;13.07;;;;;;;6.14;100.00;101437.34;5261514;28;20035;-74
2024/02/27 00:20:09;;;;;;;31.88;13.38;;;;;;;6.09;100.00;101435.06;5258066;28;20016;-75
2024/02/27 00:22:39;;;;;;;34.90;14.05;;;;;;;6.09;100.00;101432.41;5256364;28;20485;-75
2024/02/27 00:25:10;;;;;;;28.42;13.25;;;;;;;6.06;100.00;101437.97;5253383;28;20420;-74
2024/02/27 00:27:41;;;;;;;30.15;13.63;;;;;;;6.04;100.00;101434.59;5261625;28;20031;-74
2024/02/27 00:30:12;;;;;;;30.10;13.65;;;;;;;6.01;100.00;101442.81;5256368;28;20043;-75
2024/02/27 00:32:42;;;;;;;27.63;12.57;;;;;;;6.04;100.00;101444.38;5258309;28;20047;-75
2024/02/27 00:35:13;;;;;;;30.45;12.75;;;;;;;6.07;100.00;101447.63;5254714;28;20032;-75
2024/02/27 00:37:44;;;;;;;29.15;13.75;;;;;;;6.11;100.00;101454.41;5254636;28;20074;-75
2024/02/27 00:40:14;;;;;;;31.08;13.40;;;;;;;6.04;100.00;101447.91;5258877;28;20017;-75
2024/02/27 00:42:45;;;;;;;30.05;13.48;;;;;;;6.09;100.00;101447.53;5256274;28;20031;-75
2024/02/27 00:45:15;;;;;;;31.00;12.90;;;;;;;6.05;100.00;101454.06;5254724;28;20028;-75
2024/02/27 00:47:46;;;;;;;33.15;13.73;;;;;;;6.05;100.00;101454.91;5257320;28;20493;-75
2024/02/27 00:50:16;;;;;;;29.55;12.57;;;;;;;6.10;100.00;101452.72;5257932;28;20025;-75
2024/02/27 00:52:47;;;;;;;32.58;13.80;;;;;;;6.02;100.00;101448.97;5254288;28;20020;-75
2024/02/27 00:55:17;;;;;;;31.20;13.07;;;;;;;5.95;100.00;101449.47;5254813;28;20107;-74
2024/02/27 00:57:48;;;;;;;34.25;14.55;;;;;;;5.93;100.00;101450.56;5254831;28;20043;-75
2024/02/27 01:00:19;;;;;;;39.17;15.20;;;;;;;5.92;100.00;101455.06;5251331;28;20406;-75
2024/02/27 01:02:49;;;;;;;32.53;14.60;;;;;;;5.93;100.00;101455.91;5257935;28;20020;-74
2024/02/27 01:05:20;;;;;;;29.27;12.75;;;;;;;5.91;100.00;101461.31;5252612;28;20152;-76
2024/02/27 01:07:50;;;;;;;31.40;13.95;;;;;;;5.88;100.00;101453.56;5258157;28;20091;-74
2024/02/27 01:10:21;;;;;;;34.33;13.98;;;;;;;5.88;100.00;101447.41;5255211;28;20428;-74
2024/02/27 01:12:51;;;;;;;30.65;13.63;;;;;;;5.90;100.00;101448.09;5248039;28;20431;-75
2024/02/27 01:15:22;;;;;;;29.02;13.40;;;;;;;5.90;100.00;101451.63;5254309;28;20381;-75
2024/02/27 01:17:52;;;;;;;33.88;14.50;;;;;;;5.88;100.00;101458.91;5257665;28;20541;-75
2024/02/27 01:20:22;;;;;;;34.13;13.85;;;;;;;5.85;100.00;101452.94;5251553;28;20020;-74
2024/02/27 01:22:53;;;;;;;34.42;14.68;;;;;;;5.84;100.00;101456.59;5258659;28;20016;-74
2024/02/27 01:25:23;;;;;;;38.67;15.70;;;;;;;5.80;100.00;101455.97;5267113;28;20032;-75
2024/02/27 01:27:54;;;;;;;34.40;13.35;;;;;;;5.81;100.00;101448.84;5255824;28;20020;-75
2024/02/27 01:30:24;;;;;;;34.30;14.98;;;;;;;5.77;100.00;101456.19;5254712;28;20029;-74
2024/02/27 01:32:55;;;;;;;33.88;14.20;;;;;;;5.76;100.00;101465.16;5255305;28;20027;-74
2024/02/27 01:35:25;;;;;;;37.03;14.63;;;;;;;5.77;100.00;101453.53;5257096;28;20032;-74
2024/02/27 01:37:56;;;;;;;36.30;14.32;;;;;;;5.80;100.00;101458.63;5255046;28;20039;-74
2024/02/27 01:40:26;;;;;;;34.85;14.40;;;;;;;5.79;100.00;101467.59;5256855;28;20141;-74
2024/02/27 01:42:57;;;;;;;38.33;15.93;;;;;;;5.69;100.00;101466.63;5254044;28;20016;-74
2024/02/27 01:45:27;;;;;;;33.78;14.48;;;;;;;5.62;100.00;101468.03;5269793;28;20046;-74
2024/02/27 01:47:58;;;;;;;35.65;14.43;;;;;;;5.70;100.00;101470.97;5252713;28;20107;-74
2024/02/27 01:50:28;;;;;;;38.00;15.20;;;;;;;5.67;100.00;101466.75;5249211;28;20474;-74
2024/02/27 01:52:59;;;;;;;38.22;14.85;;;;;;;5.64;100.00;101472.31;5252842;28;20044;-74
2024/02/27 01:55:29;;;;;;;40.55;14.88;;;;;;;5.65;100.00;101476.66;5251682;28;20534;-74
2024/02/27 01:58:00;;;;;;;39.65;15.30;;;;;;;5.62;100.00;101484.03;5253517;28;20393;-74
2024/02/27 02:00:31;;;;;;;35.10;15.43;;;;;;;5.58;100.00;101483.44;5252350;28;20031;-74
2024/02/27 02:03:03;;;;;;;39.13;16.00;;;;;;;5.56;100.00;101488.00;5253006;28;20027;-74
2024/02/27 02:05:34;;;;;;;33.92;15.02;;;;;;;5.52;100.00;101481.22;5252395;28;20645;-74
2024/02/27 02:08:05;;;;;;;35.05;15.13;;;;;;;5.53;100.00;101484.75;5253407;28;20035;-74
2024/02/27 02:10:36;;;;;;;40.42;16.30;;;;;;;5.50;100.00;101483.16;5255243;28;20023;-74
2024/02/27 02:13:20;;;;;;;44.13;16.55;;;;;;;5.44;100.00;101486.31;5251183;28;20024;-74
2024/02/27 02:15:51;;;;;;;38.63;16.23;;;;;;;5.48;100.00;101490.44;5253129;28;20712;-74
2024/02/27 02:18:21;;;;;;;41.55;16.77;;;;;;;5.43;100.00;101488.13;5249251;28;20029;-74
2024/02/27 02:21:12;;;;;;;40.20;15.30;;;;;;;5.40;100.00;101488.34;5252209;28;20036;-74
2024/02/27 02:24:02;;;;;;;38.67;15.48;;;;;;;5.42;100.00;101497.06;5248478;28;20454;-74
2024/02/27 02:26:34;;;;;;;40.83;17.10;;;;;;;5.43;100.00;101501.41;5252291;28;20016;-74
2024/02/27 02:29:05;;;;;;;39.10;16.33;;;;;;;5.43;100.00;101501.41;5254265;28;20598;-74
2024/02/27 02:31:36;;;;;;;41.15;17.50;;;;;;;5.44;100.00;101502.28;5252151;28;20267;-74
2024/02/27 02:34:26;;;;;;;44.40;17.77;;;;;;;5.48;100.00;101495.75;5251322;28;20054;-74
2024/02/27 02:37:08;;;;;;;43.15;17.70;;;;;;;5.50;100.00;101499.13;5254624;28;20437;-74
2024/02/27 02:39:39;;;;;;;42.08;17.30;;;;;;;5.52;100.00;101507.84;5254379;28;20106;-74
2024/02/27 02:42:09;;;;;;;44.50;17.45;;;;;;;5.53;100.00;101517.53;5251328;28;20585;-74
2024/02/27 02:44:40;;;;;;;44.88;17.70;;;;;;;5.54;100.00;101503.25;5257035;28;20028;-74
2024/02/27 02:47:10;;;;;;;39.08;16.88;;;;;;;5.59;100.00;101510.91;5251659;28;20016;-74
2024/02/27 02:49:41;;;;;;;43.33;16.67;;;;;;;5.59;100.00;101503.75;5259499;28;20028;-74
2024/02/27 02:52:11;;;;;;;39.67;16.42;;;;;;;5.66;100.00;101507.63;5246917;28;20031;-74
2024/02/27 02:54:42;;;;;;;37.47;15.57;;;;;;;5.67;100.00;101511.13;5252010;28;20679;-74
2024/02/27 02:57:13;;;;;;;40.65;16.65;;;;;;;5.68;100.00;101512.84;5249161;28;20474;-76
2024/02/27 02:59:44;;;;;;;42.38;17.08;;;;;;;5.71;100.00;101517.91;5251058;28;20107;-76
2024/02/27 03:02:14;;;;;;;36.97;15.43;;;;;;;5.74;100.00;101517.69;5247941;28;20109;-75
2024/02/27 03:04:45;;;;;;;45.97;17.88;;;;;;;5.71;100.00;101516.09;5255268;28;20500;-76
2024/02/27 03:07:18;;;;;;;40.45;16.13;;;;;;;5.75;100.00;101526.53;5251291;28;20547;-75
2024/02/27 03:09:49;;;;;;;43.00;16.40;;;;;;;5.70;100.00;101530.38;5254924;28;20028;-76
2024/02/27 03:12:22;;;;;;;40.67;15.95;;;;;;;5.68;100.00;101521.69;5245154;28;20432;-76
2024/02/27 03:14:53;;;;;;;36.05;15.85;;;;;;;5.65;100.00;101518.41;5254626;28;20039;-75
2024/02/27 03:17:25;;;;;;;42.63;17.52;;;;;;;5.69;100.00;101519.88;5252859;28;20032;-76
2024/02/27 03:19:55;;;;;;;44.38;17.70;;;;;;;5.67;100.00;101522.66;5252147;28;20103;-76
2024/02/27 03:22:26;;;;;;;42.33;17.98;;;;;;;5.64;100.00;101522.88;5249496;28;20120;-75
2024/02/27 03:24:59;;;;;;;41.72;17.30;;;;;;;5.64;100.00;101522.88;5249664;28;20127;-77
2024/02/27 03:27:32;;;;;;;36.60;16.67;;;;;;;5.62;100.00;101518.63;5252811;28;20025;-75
2024/02/27 03:30:03;;;;;;;42.97;17.15;;;;;;;5.56;100.00;101519.94;5249613;28;20504;-75
2024/02/27 03:32:33;;;;;;;40.20;17.33;;;;;;;5.58;100.00;101527.84;5253422;28;20032;-77
2024/02/27 03:35:04;;;;;;;42.35;17.77;;;;;;;5.57;100.00;101519.00;5252036;28;20027;-75
2024/02/27 03:37:35;;;;;;;43.70;17.58;;;;;;;5.57;100.00;101524.31;5250448;28;20024;-75
2024/02/27 03:40:07;;;;;;;38.42;15.60;;;;;;;5.54;100.00;101531.69;5252532;28;20020;-78
2024/02/27 03:42:39;;;;;;;43.38;17.55;;;;;;;5.50;100.00;101528.41;5252133;28;20055;-75
2024/02/27 03:45:10;;;;;;;41.28;16.90;;;;;;;5.53;100.00;101530.84;5253740;28;20062;-76
2024/02/27 03:47:41;;;;;;;45.17;17.67;;;;;;;5.44;100.00;101528.88;5244952;28;20020;-75
2024/02/27 03:50:11;;;;;;;42.35;17.25;;;;;;;5.44;100.00;101519.06;5248374;28;20043;-75
2024/02/27 03:52:42;;;;;;;42.67;17.23;;;;;;;5.42;100.00;101514.81;5245780;28;20031;-78
2024/02/27 03:55:13;;;;;;;40.55;17.67;;;;;;;5.43;100.00;101521.88;5246536;28;20031;-75
2024/02/27 03:57:43;;;;;;;42.45;17.27;;;;;;;5.44;100.00;101518.22;5250056;28;20028;-75
2024/02/27 04:00:14;;;;;;;49.85;18.95;;;;;;;5.44;100.00;101523.56;5251067;28;20021;-78
2024/02/27 04:02:45;;;;;;;40.15;15.45;;;;;;;5.48;100.00;101537.50;5249209;28;20066;-78
2024/02/27 04:05:15;;;;;;;41.97;18.02;;;;;;;5.46;100.00;101543.75;5247850;28;20027;-75
2024/02/27 04:07:46;;;;;;;46.00;17.85;;;;;;;5.44;100.00;101551.00;5250870;28;20028;-75
2024/02/27 04:10:16;;;;;;;40.70;16.80;;;;;;;5.45;100.00;101554.53;5247727;28;20024;-77
2024/02/27 04:12:46;;;;;;;47.17;19.42;;;;;;;5.44;100.00;101553.69;5252274;28;20069;-76
2024/02/27 04:15:17;;;;;;;43.13;17.80;;;;;;;5.45;100.00;101555.38;5251598;28;20120;-75
2024/02/27 04:17:48;;;;;;;40.33;16.25;;;;;;;5.46;100.00;101556.22;5247687;28;20038;-75
2024/02/27 04:20:19;;;;;;;51.05;18.20;;;;;;;5.44;100.00;101555.50;5253719;28;20033;-75
2024/02/27 04:22:50;;;;;;;43.92;17.13;;;;;;;5.46;100.00;101546.41;5259365;28;20020;-77
2024/02/27 04:25:20;;;;;;;44.78;17.42;;;;;;;5.43;100.00;101543.16;5251548;28;20024;-78
2024/02/27 04:27:50;;;;;;;46.05;17.85;;;;;;;5.38;100.00;101535.53;5259126;28;20028;-76
2024/02/27 04:30:21;;;;;;;43.25;16.38;;;;;;;5.36;100.00;101547.22;5246785;28;20020;-75
2024/02/27 04:32:51;;;;;;;54.60;19.27;;;;;;;5.34;100.00;101549.16;5257574;28;20126;-75
2024/02/27 04:35:23;;;;;;;42.05;16.75;;;;;;;5.28;100.00;101554.94;5254135;28;20024;-78
2024/02/27 04:37:53;;;;;;;47.05;18.02;;;;;;;5.27;100.00;101563.88;5249907;28;20054;-76
2024/02/27 04:40:25;;;;;;;41.67;17.38;;;;;;;5.23;100.00;101571.25;5254517;28;20032;-75
2024/02/27 04:42:56;;;;;;;38.58;16.17;;;;;;;5.24;100.00;101577.41;5253508;28;20023;-75
2024/02/27 04:45:26;;;;;;;46.50;17.98;;;;;;;5.16;100.00;101584.13;5265866;28;20501;-79
2024/02/27 04:47:57;;;;;;;46.25;16.83;;;;;;;5.14;100.00;101582.56;5256030;28;20091;-74
2024/02/27 04:50:27;;;;;;;39.55;16.17;;;;;;;5.15;100.00;101584.25;5253143;28;20440;-74
2024/02/27 04:52:59;;;;;;;39.90;16.17;;;;;;;5.18;100.00;101584.91;5256109;28;20032;-74
2024/02/27 04:55:30;;;;;;;39.05;17.10;;;;;;;5.16;100.00;101593.94;5252078;28;20085;-74
2024/02/27 04:58:01;;;;;;;43.15;17.10;;;;;;;5.12;100.00;101587.13;5254464;28;20024;-74
2024/02/27 05:00:31;;;;;;;41.17;16.85;;;;;;;5.10;100.00;101594.38;5250326;28;20039;-74
2024/02/27 05:03:02;;;;;;;47.28;17.05;;;;;;;5.10;100.00;101597.91;5249715;28;20382;-74
2024/02/27 05:05:35;;;;;;;45.83;17.58;;;;;;;5.06;100.00;101596.41;5249421;28;20050;-74
2024/02/27 05:08:06;;;;;;;49.55;16.02;;;;;;;5.05;100.00;101609.84;5254853;28;20024;-74
2024/02/27 05:10:36;;;;;;;44.08;17.17;;;;;;;5.01;100.00;101606.53;5255794;28;20025;-74
2024/02/27 05:13:07;;;;;;;42.53;16.20;;;;;;;5.04;100.00;101616.13;5253403;28;20455;-74
2024/02/27 05:15:37;;;;;;;41.38;15.77;;;;;;;4.98;100.00;101616.56;5254107;28;20035;-74
2024/02/27 05:18:08;;;;;;;36.13;15.38;;;;;;;4.93;100.00;101625.72;5251716;28;20040;-74
2024/02/27 05:20:39;;;;;;;40.75;17.15;;;;;;;4.91;100.00;101627.63;5253592;28;20534;-74
2024/02/27 05:23:09;;;;;;;43.10;15.98;;;;;;;4.89;100.00;101623.41;5255408;28;20393;-74
2024/02/27 05:25:41;;;;;;;40.75;16.52;;;;;;;4.96;100.00;101634.44;5251749;28;20099;-74
2024/02/27 05:28:12;;;;;;;36.13;15.73;;;;;;;5.00;100.00;101636.75;5253460;28;20039;-74
2024/02/27 05:30:44;;;;;;;39.72;16.63;;;;;;;5.04;100.00;101643.56;5247393;28;20027;-74
2024/02/27 05:33:14;;;;;;;40.45;15.90;;;;;;;5.05;100.00;101649.72;5252465;28;20115;-74
2024/02/27 05:35:45;;;;;;;38.33;16.85;;;;;;;5.06;100.00;101641.63;5271421;28;20095;-74
2024/02/27 05:38:16;;;;;;;43.97;15.82;;;;;;;5.09;100.00;101640.56;5249788;28;20538;-74
2024/02/27 05:40:46;;;;;;;45.47;16.92;;;;;;;5.07;100.00;101647.78;5243559;28;20096;-74
2024/02/27 05:43:16;;;;;;;39.65;15.10;;;;;;;5.06;100.00;101643.44;5245524;28;20173;-74
2024/02/27 05:45:47;;;;;;;37.75;15.23;;;;;;;5.08;100.00;101646.88;5243185;28;20031;-74
2024/02/27 05:48:17;;;;;;;40.90;16.33;;;;;;;5.08;100.00;101653.03;5248750;28;20506;-74
2024/02/27 05:50:48;;;;;;;39.00;15.35;;;;;;;5.11;100.00;101657.25;5242322;28;20017;-74
2024/02/27 05:53:18;;;;;;;37.55;15.35;;;;;;;5.07;100.00;101661.09;5244289;28;20025;-74
2024/02/27 05:55:49;;;;;;;37.55;15.45;;;;;;;5.10;100.00;101663.53;5243413;28;20074;-74
2024/02/27 05:58:20;;;;;;;38.20;14.60;;;;;;;5.08;100.00;101673.47;5245279;28;20097;-74
2024/02/27 06:00:51;;;;;;;41.17;14.48;;;;;;;5.06;100.00;101673.53;5248762;28;20505;-74
2024/02/27 06:03:22;;;;;;;38.05;14.57;;;;;;;5.05;100.00;101679.84;5239281;28;20351;-74
2024/02/27 06:05:53;;;;;;;34.42;14.95;;;;;;;5.14;100.00;101683.66;5247919;28;20474;-74
2024/02/27 06:08:25;;;;;;;41.40;16.25;;;;;;;5.10;100.00;101691.00;5250713;28;20040;-74
2024/02/27 06:10:55;;;;;;;36.92;14.07;;;;;;;5.15;100.00;101693.31;5244338;28;20031;-74
2024/02/27 06:13:25;;;;;;;38.17;14.10;;;;;;;5.13;100.00;101687.28;5236702;28;20478;-74
2024/02/27 06:15:57;;;;;;;38.72;14.65;;;;;;;5.14;100.00;101692.47;5246618;28;20440;-74
2024/02/27 06:18:27;;;;;;;36.05;14.98;;;;;;;5.13;100.00;101695.25;5237465;28;20037;-74
2024/02/27 06:23:46;;;;;;;42.35;14.82;;;;;;;5.11;100.00;101694.50;5247928;28;20017;-74
2024/02/27 06:26:17;;;;;;;42.80;16.90;;;;;;;5.12;100.00;101699.72;5243586;28;20047;-74
2024/02/27 06:28:48;;;;;;;37.20;15.35;;;;;;;5.11;100.00;101702.47;5246816;28;20024;-74
2024/02/27 06:31:18;;;;;;;37.67;15.27;;;;;;;5.09;100.00;101707.06;5240943;28;20020;-74
2024/02/27 06:33:48;;;;;;;43.58;16.92;;;;;;;5.09;100.00;101710.56;5247534;28;20028;-74
2024/02/27 06:36:19;;;;;;;36.60;14.65;;;;;;;5.08;100.00;101710.69;5240864;28;20104;-74
2024/02/27 06:38:49;;;;;;;33.38;15.05;;;;;;;5.12;100.00;101729.00;5247653;28;20112;-74
2024/02/27 06:41:20;;;;;;;37.58;15.05;;;;;;;5.10;100.00;101727.38;5238778;28;20477;-74
2024/02/27 06:43:51;;;;;;;37.92;15.85;;;;;;;5.07;100.00;101732.91;5247937;28;20020;-74
2024/02/27 06:46:21;;;;;;;41.65;16.02;;;;;;;5.12;100.00;101733.44;5244184;28;20046;-73
2024/02/27 06:48:52;;;;;;;39.83;15.00;;;;;;;5.09;100.00;101734.50;5244282;28;20035;-74
2024/02/27 06:51:23;;;;;;;40.63;15.80;;;;;;;5.12;100.00;101731.66;5244642;28;20397;-74
2024/02/27 06:53:53;;;;;;;39.92;16.75;;;;;;;5.09;100.00;101734.50;5239203;28;20024;-74
2024/02/27 06:56:24;;;;;;;41.08;15.75;;;;;;;5.12;100.00;101734.31;5240334;28;20020;-74
2024/02/27 06:58:55;;;;;;;43.50;16.05;;;;;;;5.10;100.00;101725.56;5248284;28;20539;-74
2024/02/27 07:01:26;;;;;;;43.75;16.67;;;;;;;5.07;100.00;101722.25;5245202;28;20029;-74
2024/02/27 07:03:56;;;;;;;49.38;18.23;;;;;;;5.02;100.00;101719.09;5244966;28;20031;-74
2024/02/27 07:06:26;;;;;;;50.78;20.50;;;;;;;4.99;100.00;101711.34;5242956;28;20119;-73
2024/02/27 07:08:58;;;;;;;44.40;17.55;;;;;;;5.00;100.00;101708.56;5244156;28;20029;-74
2024/02/27 07:11:29;;;;;;;41.25;17.02;;;;;;;4.98;100.00;101718.47;5259450;28;20501;-74
2024/02/27 07:13:59;;;;;;;43.67;16.80;;;;;;;5.02;100.00;101725.28;5244783;28;20124;-74
2024/02/27 07:16:30;;;;;;;45.70;18.15;;;;;;;4.98;100.00;101729.13;5244641;28;20124;-74
2024/02/27 07:19:00;;;;;;;45.17;18.73;;;;;;;5.00;100.00;101740.47;5244184;28;20024;-74
2024/02/27 07:21:30;;;;;;;46.90;17.95;;;;;;;5.05;100.00;101743.66;5245021;28;20535;-74
2024/02/27 07:24:01;;;;;;;47.53;17.88;;;;;;;5.10;100.00;101749.50;5247969;28;20028;-74
2024/02/27 07:26:31;;;;;;;44.90;17.38;;;;;;;5.15;100.00;101757.16;5246485;28;20025;-74
2024/02/27 07:29:03;;;;;;;44.90;18.05;;;;;;;5.18;100.00;101759.63;5248934;28;20028;-74
2024/02/27 07:31:34;;;;;;;46.60;18.85;;;;;;;5.24;100.00;101761.00;5233664;28;20036;-72
2024/02/27 07:34:05;;;;;;;49.47;18.17;;;;;;;5.26;100.00;101770.53;5241819;28;20024;-73
2024/02/27 07:36:36;;;;;;;46.17;17.98;;;;;;;5.37;100.00;101760.00;5246067;28;20112;-73
2024/02/27 07:39:06;;;;;;;43.10;17.60;;;;;;;5.39;100.00;101759.88;5245660;28;20529;-73
2024/02/27 07:41:40;;;;;;;44.60;17.50;;;;;;;5.44;100.00;101755.94;5240984;28;20043;-73
2024/02/27 07:44:10;;;;;;;44.22;17.67;;;;;;;5.48;100.00;101761.03;5251612;28;20028;-73
2024/02/27 07:46:41;;;;;;;40.88;17.50;;;;;;;5.54;100.00;101757.94;5245088;28;20405;-74
2024/02/27 07:49:11;;;;;;;44.50;17.52;;;;;;;5.60;100.00;101760.13;5250280;28;20070;-73
2024/02/27 07:51:42;;;;;;;45.35;18.67;;;;;;;5.63;100.00;101759.94;5254011;28;20024;-74
2024/02/27 07:54:16;;;;;;;46.58;17.65;;;;;;;5.70;100.00;101756.69;5251942;28;20555;-73
2024/02/27 07:56:46;;;;;;;43.03;17.73;;;;;;;5.74;100.00;101757.31;5249014;28;20027;-74
2024/02/27 07:59:17;;;;;;;44.78;18.25;;;;;;;5.72;100.00;101746.78;5249937;28;20525;-73
2024/02/27 08:01:47;;;;;;;44.33;18.05;;;;;;;5.82;100.00;101765.56;5253248;28;20035;-74
2024/02/27 08:04:18;;;;;;;47.25;18.13;;;;;;;5.90;100.00;101773.88;5249020;28;20478;-73
2024/02/27 08:06:48;;;;;;;44.03;17.75;;;;;;;5.89;100.00;101779.31;5254987;28;20412;-73
2024/02/27 08:09:19;;;;;;;41.60;18.52;;;;;;;5.95;100.00;101779.72;5252085;28;20099;-74
2024/02/27 08:11:51;;;;;;;44.92;18.35;;;;;;;6.01;100.00;101798.88;5253656;28;20722;-73
2024/02/27 08:14:21;;;;;;;40.33;17.50;;;;;;;6.08;100.00;101790.34;5248354;28;20024;-74
2024/02/27 08:16:52;;;;;;;45.95;19.65;;;;;;;6.04;100.00;101790.69;5265584;28;20051;-74
2024/02/27 08:19:22;;;;;;;47.63;18.83;;;;;;;5.98;100.00;101802.66;5252772;28;20032;-73
2024/02/27 08:21:53;;;;;;;43.45;18.27;;;;;;;6.01;100.00;101801.56;5256106;28;20690;-73
2024/02/27 08:24:23;;;;;;;42.78;17.77;;;;;;;6.03;100.00;101802.31;5254267;28;20017;-74
2024/02/27 08:26:54;;;;;;;40.88;17.27;;;;;;;5.95;100.00;101810.84;5251089;28;20031;-74
2024/02/27 08:29:24;;;;;;;41.90;17.60;;;;;;;5.84;100.00;101816.94;5267144;28;20751;-74
2024/02/27 08:31:55;;;;;;;47.03;18.63;;;;;;;5.85;100.00;101809.78;5249767;28;20148;-74
2024/02/27 08:34:26;;;;;;;44.72;18.02;;;;;;;5.84;100.00;101824.06;5252330;28;20490;-74
2024/02/27 08:36:56;;;;;;;45.00;18.77;;;;;;;5.87;100.00;101824.72;5258835;28;20099;-74
2024/02/27 08:39:27;;;;;;;45.28;18.13;;;;;;;5.85;100.00;101831.94;5251380;28;20024;-75
2024/02/27 08:41:57;;;;;;;47.95;19.98;;;;;;;5.86;100.00;101827.47;5252723;28;20100;-74
2024/02/27 08:44:27;;;;;;;49.88;18.45;;;;;;;5.83;100.00;101828.56;5256542;28;20431;-74
2024/02/27 08:47:01;;;;;;;45.30;17.85;;;;;;;5.81;100.00;101826.94;5255252;28;20020;-74
2024/02/27 08:49:32;;;;;;;42.97;17.77;;;;;;;5.81;100.00;101826.94;5251513;28;20397;-74
2024/02/27 08:52:02;;;;;;;44.65;18.17;;;;;;;5.84;100.00;101827.59;5257356;28;20043;-75
2024/02/27 08:54:33;;;;;;;41.70;17.40;;;;;;;5.88;100.00;101817.56;5254192;28;20043;-73
2024/02/27 08:57:04;;;;;;;48.53;18.05;;;;;;;5.91;100.00;101817.31;5250721;28;20016;-74
2024/02/27 08:59:34;;;;;;;43.08;19.25;;;;;;;5.93;100.00;101823.44;5254106;28;20024;-74
2024/02/27 09:02:06;;;;;;;45.92;20.15;;;;;;;6.07;100.00;101820.59;5251799;28;20501;-74
2024/02/27 09:04:36;;;;;;;44.13;17.48;;;;;;;6.21;100.00;101827.56;5252674;28;20466;-74
2024/02/27 09:07:08;;;;;;;43.03;17.17;;;;;;;6.36;100.00;101828.22;5254203;28;20120;-73
2024/02/27 09:09:38;;;;;;;41.67;17.15;;;;;;;6.48;100.00;101846.84;5252537;28;20065;-74
2024/02/27 09:12:09;;;;;;;47.75;20.05;;;;;;;6.52;100.00;101847.44;5252130;28;20068;-74
2024/02/27 09:14:40;;;;;;;41.88;17.08;;;;;;;6.48;100.00;101844.16;5255448;28;20027;-74
2024/02/27 09:17:10;;;;;;;40.90;17.60;;;;;;;6.45;100.00;101851.53;5251772;28;20031;-74
2024/02/27 09:19:41;;;;;;;40.22;17.98;;;;;;;6.42;100.00;101852.59;5265972;28;20035;-74
2024/02/27 09:22:11;;;;;;;44.67;17.75;;;;;;;6.48;100.00;101849.50;5252074;28;20017;-75
2024/02/27 09:24:42;;;;;;;40.40;17.25;;;;;;;6.54;100.00;101845.53;5250740;28;20048;-74
2024/02/27 09:27:12;;;;;;;36.55;16.10;;;;;;;6.55;100.00;101849.03;5249933;28;20020;-74
2024/02/27 09:29:43;;;;;;;43.85;16.88;;;;;;;6.66;100.00;101841.06;5266555;28;20097;-75
2024/02/27 09:32:17;;;;;;;36.15;16.50;;;;;;;6.78;100.00;101836.59;5239417;28;20636;-74
2024/02/27 09:34:49;;;;;;;37.60;17.27;;;;;;;6.96;100.00;101846.72;5247691;28;20040;-74
2024/02/27 09:37:22;;;;;;;42.30;19.15;;;;;;;7.02;100.00;101845.38;5252854;28;20035;-74
2024/02/27 09:39:53;;;;;;;34.95;16.55;;;;;;;7.16;100.00;101847.00;5244103;28;20020;-73
2024/02/27 09:42:24;;;;;;;38.17;15.90;;;;;;;7.33;100.00;101843.88;5240497;28;20024;-75
2024/02/27 09:44:58;;;;;;;39.67;16.50;;;;;;;7.53;100.00;101837.78;5249914;28;20051;-74
2024/02/27 09:47:29;;;;;;;35.40;15.90;;;;;;;7.68;100.00;101837.50;5248452;28;20032;-74
2024/02/27 09:50:02;;;;;;;34.33;15.18;;;;;;;8.03;100.00;101840.00;5247644;28;20024;-74
2024/02/27 09:52:35;;;;;;;35.10;16.35;;;;;;;8.68;100.00;101836.38;5251047;28;20036;-74
2024/02/27 09:55:08;;;;;;;30.60;15.32;;;;;;;9.46;100.00;101824.28;5243443;28;20029;-74
2024/02/27 09:57:40;;;;;;;29.92;15.32;;;;;;;10.22;100.00;101827.25;5248502;28;20033;-74
2024/02/27 10:00:12;;;;;;;29.13;14.60;;;;;;;10.75;100.00;101826.03;5250145;28;20024;-74
2024/02/27 10:02:47;;;;;;;26.02;14.23;;;;;;;11.11;100.00;101822.53;5249522;28;20059;-73
2024/02/27 10:05:20;;;;;;;27.88;13.80;;;;;;;11.34;100.00;101830.22;5248792;28;20024;-74
2024/02/27 10:07:51;;;;;;;27.92;14.32;;;;;;;11.54;100.00;101837.22;5248159;28;20027;-75
2024/02/27 10:10:21;;;;;;;29.02;13.23;;;;;;;11.74;100.00;101843.34;5248997;28;20036;-75
2024/02/27 10:12:52;;;;;;;25.73;13.45;;;;;;;11.96;100.00;101839.44;5243810;28;20020;-75
2024/02/27 10:15:22;;;;;;;24.20;12.85;;;;;;;12.07;100.00;101841.06;5242693;28;20024;-74
2024/02/27 10:17:55;;;;;;;23.83;12.35;;;;;;;11.87;100.00;101843.88;5249657;28;20024;-75
2024/02/27 10:20:28;;;;;;;22.77;11.77;;;;;;;11.51;100.00;101848.28;5258946;28;20052;-75
2024/02/27 10:22:59;;;;;;;22.90;12.82;;;;;;;11.47;100.00;101844.19;5249680;28;20392;-73
2024/02/27 10:25:29;;;;;;;25.33;12.85;;;;;;;11.57;100.00;101847.66;5252292;28;20084;-74
2024/02/27 10:28:01;;;;;;;26.35;13.43;;;;;;;11.57;100.00;101846.81;5248049;28;20047;-74
2024/02/27 10:30:31;;;;;;;25.42;13.30;;;;;;;11.54;100.00;101847.94;5242721;28;20028;-74
2024/02/27 10:33:02;;;;;;;22.13;12.50;;;;;;;11.51;100.00;101845.59;5259202;28;20093;-75
2024/02/27 10:35:33;;;;;;;27.42;12.95;;;;;;;11.14;100.00;101849.13;5251766;28;20032;-75
2024/02/27 10:38:19;;;;;;;23.83;12.85;;;;;;;10.73;100.00;101842.25;5249814;28;20561;-75
2024/02/27 10:40:50;;;;;;;25.50;13.40;;;;;;;10.49;100.00;101840.03;5252684;28;20054;-75
2024/02/27 10:43:20;;;;;;;23.42;12.73;;;;;;;10.49;100.00;101844.50;5247859;28;20099;-74
2024/02/27 10:45:53;;;;;;;28.10;13.18;;;;;;;10.66;100.00;101841.13;5253477;28;20114;-75
2024/02/27 10:48:24;;;;;;;25.02;12.20;;;;;;;10.92;100.00;101836.00;5261728;28;20026;-75
2024/02/27 10:50:55;;;;;;;24.35;12.98;;;;;;;10.99;100.00;101839.78;5256018;28;20024;-74
2024/02/27 10:53:26;;;;;;;28.17;13.77;;;;;;;11.06;100.00;101840.94;5250761;28;20078;-74
2024/02/27 10:55:58;;;;;;;27.67;13.45;;;;;;;11.05;100.00;101841.91;5252207;28;20036;-75
2024/02/27 10:58:31;;;;;;;27.48;13.50;;;;;;;11.20;100.00;101836.09;5252983;28;20494;-75
2024/02/27 11:01:06;;;;;;;24.10;12.75;;;;;;;11.28;100.00;101844.25;5247907;28;20056;-75
2024/02/27 11:03:40;;;;;;;26.35;13.82;;;;;;;11.43;100.00;101844.63;5253927;28;20121;-75
2024/02/27 11:06:16;;;;;;;24.48;12.38;;;;;;;11.48;100.00;101845.88;5244078;28;20020;-75
2024/02/27 11:08:53;;;;;;;23.98;12.73;;;;;;;11.62;100.00;101834.63;5259682;28;20047;-75
2024/02/27 11:11:24;;;;;;;21.08;11.80;;;;;;;11.73;100.00;101825.53;5243021;28;20494;-75
2024/02/27 11:14:00;;;;;;;22.63;12.07;;;;;;;11.58;100.00;101827.00;5260382;28;20039;-75
2024/02/27 11:16:32;;;;;;;25.40;12.32;;;;;;;11.47;100.00;101821.84;5252120;28;20036;-75
2024/02/27 11:19:10;;;;;;;19.60;11.40;;;;;;;11.51;100.00;101813.34;5248791;28;20024;-75
2024/02/27 11:21:41;;;;;;;24.70;11.38;;;;;;;11.74;100.00;101827.19;5260294;28;20056;-75
2024/02/27 11:24:12;;;;;;;20.45;11.27;;;;;;;11.78;100.00;101817.00;5251226;28;20065;-75
2024/02/27 11:26:43;;;;;;;22.80;11.60;;;;;;;11.99;100.00;101827.50;5250717;28;20485;-75
2024/02/27 11:29:15;;;;;;;21.10;10.15;;;;;;;12.17;100.00;101823.84;5249862;28;20036;-75